首页
METAR-TAF:

METAR-TAF

机场 :

雪城汉考克国际机场

锡拉丘兹, 紐約州, 美国

纬度: 43-06-33N, 经度: 076-06-12W, 海拔: 128米

当前天气观测

该预报发布于48分钟前的07:54 UTC
风速13节,风向西转西南
温度 -6°C
湿度 58%
气压 1035 hPa
能見度: 14.5公里
阴天层高于4600英尺
小雪

METAR: KSYR 120754Z 25013KT 9SM -SN OVC046 M06/M13 A3056 RMK AO2 SLP352 PCPN VRY LGT P0000 T10561128 $

时间: 03:42 (08:42 UTC)

预报

该预报发布于2小时和47分钟前的05:55 UTC
预报有效从12日的 06点(UTC)到 13日的 06点(UTC)
风速12节,风向西,有时为21节阵风
能見度: 10公里
散云层高于3500英尺
阴天层高于6000英尺
小阵雪
从 12日的 0900点(UTC)
风速8节,风向西转西南
能見度: 10公里
散云层高于3500英尺
多云层高于12000英尺
从 12日的 1700点(UTC)
风速6节,风向南转西南
能見度: 10公里
散云层高于8000英尺
多云层高于15000英尺
从 12日的 2000点(UTC)
风速5节,风向南转南东
能見度: 10公里
多云层高于15000英尺
从 13日的 0100点(UTC)
风速12节,风向东南
能見度: 10公里
多云层高于7000英尺

TAF: KSYR 120555Z 1206/1306 27012G21KT P6SM -SHSN SCT035 OVC060 FM120900 24008KT P6SM SCT035 BKN120 FM121700 20006KT P6SM SCT080 BKN150 FM122000 15005KT P6SM BKN150 FM130100 14012KT P6SM BKN070

超过4000个机场的气象观测和天气预报(METAR&TAF报告)。

可查询的气象台以黄色和红色小点在地图上表示。

将鼠标移到小点上方,可查看气象台名称。

然后点击查看天气观测和预报。

如需切换地图:点击带黑十字的绿色按钮放大地图;点击带横线的绿色按钮缩小地图;或者点击绿色箭头查看邻近地区的地图。


METAR-TAF: